VIV365 MMAA-MMBT
Flight info
| Callsign | VIV365 |
|---|---|
| Flight time | 0h 20m |
| Altitude | 27000 |
| Route | ACA4B ACA DCT PXM DCT HUX |
| Aircraft | A320/M-SDE3FGHIRWY/LB1 |
Departure
| Time | 2026-04-19 23:24 |
|---|---|
| Airport | General Juan N. Álvarez International Airport (MMAA) |
Arrival
| Time | 2026-04-19 23:45 |
|---|---|
| Airport | Bahías de Huatulco International Airport (MMBT) |
| Time | Latitude | Longitude | Altitude | Speed | Heading |
|---|---|---|---|---|---|
| 2026-04-19 23:24 | 16.66821 | -99.72916 | 8191 ft | 250 kts | 108° |
| 2026-04-19 23:24 | 16.65700 | -99.69438 | 9716 ft | 256 kts | 107° |
| 2026-04-19 23:24 | 16.64612 | -99.65872 | 11102 ft | 260 kts | 105° |
| 2026-04-19 23:25 | 16.63525 | -99.62177 | 12580 ft | 278 kts | 105° |
| 2026-04-19 23:25 | 16.62355 | -99.58152 | 14059 ft | 302 kts | 105° |
| 2026-04-19 23:25 | 16.61088 | -99.53823 | 15462 ft | 321 kts | 105° |
| 2026-04-19 23:25 | 16.59745 | -99.49243 | 16873 ft | 340 kts | 105° |
| 2026-04-19 23:26 | 16.58324 | -99.44385 | 18155 ft | 360 kts | 105° |
| 2026-04-19 23:26 | 16.56823 | -99.39271 | 19281 ft | 378 kts | 106° |
| 2026-04-19 23:26 | 16.54324 | -99.30770 | 21144 ft | 402 kts | 106° |
| 2026-04-19 23:26 | 16.50952 | -99.19297 | 23622 ft | 425 kts | 107° |
| 2026-04-19 23:27 | 16.47423 | -99.07339 | 25799 ft | 434 kts | 108° |
| 2026-04-19 23:27 | 16.43833 | -98.95192 | 26854 ft | 453 kts | 108° |
| 2026-04-19 23:27 | 16.40004 | -98.82261 | 26997 ft | 483 kts | 108° |
| 2026-04-19 23:27 | 16.36867 | -98.71687 | 26996 ft | 493 kts | 108° |
| 2026-04-19 23:28 | 16.35851 | -98.68271 | 26890 ft | 494 kts | 108° |
| 2026-04-19 23:28 | 16.34833 | -98.64854 | 26907 ft | 495 kts | 108° |
| 2026-04-19 23:28 | 16.33811 | -98.61425 | 26906 ft | 495 kts | 108° |
| 2026-04-19 23:28 | 16.32793 | -98.58009 | 26906 ft | 495 kts | 108° |
| 2026-04-19 23:29 | 16.31774 | -98.54588 | 26911 ft | 495 kts | 108° |
| 2026-04-19 23:29 | 16.30753 | -98.51167 | 26909 ft | 495 kts | 108° |
| 2026-04-19 23:29 | 16.29734 | -98.47750 | 26910 ft | 495 kts | 108° |
| 2026-04-19 23:29 | 16.28712 | -98.44333 | 26912 ft | 494 kts | 108° |
| 2026-04-19 23:30 | 16.27007 | -98.38654 | 26912 ft | 494 kts | 108° |
| 2026-04-19 23:30 | 16.24961 | -98.31837 | 26915 ft | 494 kts | 108° |
| 2026-04-19 23:30 | 16.22923 | -98.25008 | 26916 ft | 494 kts | 108° |
| 2026-04-19 23:30 | 16.20885 | -98.18193 | 26924 ft | 493 kts | 108° |
| 2026-04-19 23:31 | 16.18835 | -98.11389 | 26927 ft | 493 kts | 108° |
| 2026-04-19 23:31 | 16.16780 | -98.04596 | 26929 ft | 492 kts | 108° |
| 2026-04-19 23:31 | 16.14738 | -97.97796 | 26929 ft | 492 kts | 108° |
| 2026-04-19 23:31 | 16.12701 | -97.91009 | 26928 ft | 492 kts | 108° |
| 2026-04-19 23:32 | 16.10647 | -97.84232 | 26931 ft | 491 kts | 108° |
| 2026-04-19 23:32 | 16.08585 | -97.77459 | 26936 ft | 491 kts | 108° |
| 2026-04-19 23:32 | 16.06535 | -97.70677 | 26940 ft | 491 kts | 108° |
| 2026-04-19 23:32 | 16.05048 | -97.65739 | 26931 ft | 491 kts | 108° |
| 2026-04-19 23:33 | 16.04026 | -97.62353 | 26576 ft | 491 kts | 108° |
| 2026-04-19 23:33 | 16.03003 | -97.58970 | 26200 ft | 491 kts | 108° |
| 2026-04-19 23:33 | 16.01977 | -97.55582 | 25778 ft | 492 kts | 108° |
| 2026-04-19 23:33 | 16.00955 | -97.52227 | 25325 ft | 493 kts | 108° |
| 2026-04-19 23:34 | 15.99737 | -97.48236 | 24802 ft | 494 kts | 107° |
| 2026-04-19 23:34 | 15.97672 | -97.41428 | 23937 ft | 495 kts | 107° |
| 2026-04-19 23:34 | 15.95590 | -97.34593 | 23000 ft | 496 kts | 107° |
| 2026-04-19 23:34 | 15.93510 | -97.27822 | 22007 ft | 489 kts | 107° |
| 2026-04-19 23:35 | 15.91467 | -97.21136 | 21042 ft | 481 kts | 107° |
| 2026-04-19 23:35 | 15.89470 | -97.14547 | 20066 ft | 473 kts | 107° |
| 2026-04-19 23:35 | 15.87552 | -97.08096 | 18997 ft | 459 kts | 102° |
| 2026-04-19 23:35 | 15.86764 | -97.01552 | 17954 ft | 456 kts | 96° |
| 2026-04-19 23:36 | 15.85997 | -96.95074 | 16776 ft | 447 kts | 96° |
| 2026-04-19 23:36 | 15.85247 | -96.88831 | 15692 ft | 423 kts | 96° |
| 2026-04-19 23:36 | 15.84553 | -96.82966 | 14967 ft | 398 kts | 96° |
| 2026-04-19 23:36 | 15.83900 | -96.77441 | 14348 ft | 374 kts | 96° |
| 2026-04-19 23:37 | 15.83282 | -96.72239 | 13769 ft | 353 kts | 95° |
| 2026-04-19 23:37 | 15.82697 | -96.67302 | 13106 ft | 336 kts | 95° |
| 2026-04-19 23:37 | 15.82135 | -96.62575 | 12457 ft | 323 kts | 95° |
| 2026-04-19 23:37 | 15.81597 | -96.58018 | 11799 ft | 314 kts | 95° |
| 2026-04-19 23:38 | 15.81078 | -96.53679 | 11109 ft | 289 kts | 95° |
| 2026-04-19 23:38 | 15.80594 | -96.49669 | 10455 ft | 275 kts | 95° |
| 2026-04-19 23:38 | 15.80130 | -96.45750 | 9788 ft | 273 kts | 95° |
| 2026-04-19 23:38 | 15.79672 | -96.41865 | 9027 ft | 269 kts | 95° |
| 2026-04-19 23:39 | 15.79213 | -96.38039 | 8289 ft | 266 kts | 95° |
| 2026-04-19 23:39 | 15.78753 | -96.34257 | 7569 ft | 262 kts | 95° |
| 2026-04-19 23:39 | 15.78306 | -96.30556 | 6868 ft | 258 kts | 95° |
| 2026-04-19 23:39 | 15.77859 | -96.26837 | 6167 ft | 261 kts | 95° |
| 2026-04-19 23:40 | 15.77054 | -96.23129 | 5439 ft | 265 kts | 101° |
| 2026-04-19 23:40 | 15.76180 | -96.19401 | 4760 ft | 265 kts | 101° |
| 2026-04-19 23:40 | 15.75331 | -96.15759 | 4155 ft | 251 kts | 101° |
| 2026-04-19 23:40 | 15.74541 | -96.12369 | 3572 ft | 233 kts | 101° |
| 2026-04-19 23:41 | 15.74366 | -96.09273 | 3004 ft | 211 kts | 63° |
| 2026-04-19 23:41 | 15.76546 | -96.07661 | 3032 ft | 198 kts | 5° |
| 2026-04-19 23:41 | 15.78978 | -96.08885 | 2998 ft | 208 kts | 303° |
| 2026-04-19 23:41 | 15.78978 | -96.11570 | 2885 ft | 182 kts | 248° |
| 2026-04-19 23:42 | 15.78872 | -96.13036 | 2743 ft | 167 kts | 282° |
| 2026-04-19 23:42 | 15.78979 | -96.14199 | 2572 ft | 159 kts | 270° |
| 2026-04-19 23:42 | 15.78882 | -96.15327 | 2370 ft | 155 kts | 264° |
| 2026-04-19 23:42 | 15.78764 | -96.16431 | 2151 ft | 153 kts | 264° |
| 2026-04-19 23:43 | 15.78651 | -96.17523 | 1937 ft | 152 kts | 264° |
| 2026-04-19 23:43 | 15.78541 | -96.18611 | 1721 ft | 151 kts | 265° |
| 2026-04-19 23:43 | 15.78431 | -96.19696 | 1504 ft | 151 kts | 265° |
| 2026-04-19 23:43 | 15.78330 | -96.20780 | 1410 ft | 151 kts | 267° |
| 2026-04-19 23:44 | 15.78255 | -96.21874 | 1212 ft | 152 kts | 264° |
| 2026-04-19 23:44 | 15.78115 | -96.22951 | 925 ft | 150 kts | 258° |
| 2026-04-19 23:44 | 15.77943 | -96.24009 | 683 ft | 148 kts | 255° |
| 2026-04-19 23:44 | 15.77743 | -96.25053 | 533 ft | 147 kts | 254° |
| 2026-04-19 23:45 | 15.77561 | -96.26006 | 510 ft | 108 kts | 258° |
| 2026-04-19 23:45 | 15.77493 | -96.26428 | 507 ft | 31 kts | 257° |
| 2026-04-19 23:45 | 15.77470 | -96.26490 | 508 ft | 0 kts | 211° |
| 2026-04-19 23:45 | 15.77457 | -96.26470 | 508 ft | 14 kts | 118° |
| 2026-04-19 23:46 | 15.77396 | -96.26304 | 509 ft | 28 kts | 110° |
| 2026-04-19 23:46 | 15.77333 | -96.26110 | 509 ft | 29 kts | 101° |
| 2026-04-19 23:46 | 15.77355 | -96.25958 | 509 ft | 7 kts | 82° |
| 2026-04-19 23:46 | 15.77323 | -96.25943 | 509 ft | 6 kts | 162° |
| 2026-04-19 23:47 | 15.77278 | -96.25934 | 509 ft | 4 kts | 169° |
| 2026-04-19 23:47 | 15.77275 | -96.25933 | 509 ft | 0 kts | 169° |
| 2026-04-19 23:53 | 15.77277 | -96.25933 | 509 ft | 0 kts | 169° |